createdAt,value
2023-10-10T00:03:50.890Z,100463.81
2023-10-10T00:08:58.241Z,100465.47
2023-10-10T00:14:08.111Z,100480.56
2023-10-10T00:19:30.117Z,100498.16
2023-10-10T00:24:34.141Z,100490.97
2023-10-10T00:29:38.003Z,100501.72
2023-10-10T00:34:41.568Z,100509.50
2023-10-10T00:39:53.653Z,100513.53
2023-10-10T00:44:57.533Z,100516.03
2023-10-10T00:50:01.708Z,100517.16
2023-10-10T00:55:06.507Z,100527.00
2023-10-10T01:00:15.981Z,100518.91
2023-10-10T01:05:24.756Z,100524.22
2023-10-10T01:10:29.138Z,100523.53
2023-10-10T01:15:36.557Z,100528.84
2023-10-10T01:20:46.995Z,100526.03
2023-10-10T01:25:51.235Z,100518.84
2023-10-10T01:30:54.952Z,100515.50
2023-10-10T01:36:04.157Z,100513.44
2023-10-10T01:41:16.656Z,100482.94
2023-10-10T01:46:30.240Z,100467.59
2023-10-10T01:51:36.721Z,100491.44
2023-10-10T01:56:40.532Z,100507.00
2023-10-10T02:01:44.548Z,100505.09
2023-10-10T02:06:56.408Z,100509.81
2023-10-10T02:12:09.697Z,100505.34
2023-10-10T02:17:26.941Z,100501.19
2023-10-10T02:22:48.815Z,100509.50
2023-10-10T02:27:56.526Z,100520.09
2023-10-10T02:33:00.347Z,100525.13
2023-10-10T02:38:08.325Z,100503.94
2023-10-10T02:43:20.055Z,100511.56
2023-10-10T02:48:27.067Z,100532.91
2023-10-10T02:53:33.923Z,100545.16
2023-10-10T02:58:39.218Z,100554.78
2023-10-10T03:03:43.335Z,100547.53
2023-10-10T03:08:53.061Z,100543.06
2023-10-10T03:14:02.221Z,100553.66
2023-10-10T03:19:06.178Z,100546.41
2023-10-10T03:24:31.140Z,100547.63
2023-10-10T03:29:51.185Z,100557.25
2023-10-10T03:34:58.568Z,100553.47
2023-10-10T03:40:20.462Z,100542.88
2023-10-10T03:45:42.425Z,100560.13
2023-10-10T03:51:05.436Z,100549.94
2023-10-10T03:56:33.385Z,100548.81
2023-10-10T04:01:55.933Z,100561.75
2023-10-10T04:07:17.820Z,100563.44
2023-10-10T04:12:39.916Z,100566.06
2023-10-10T04:18:01.900Z,100570.09
2023-10-10T04:23:23.809Z,100565.78
2023-10-10T04:28:45.814Z,100571.78
2023-10-10T04:34:07.859Z,100578.72
2023-10-10T04:39:29.752Z,100580.28
2023-10-10T04:44:51.690Z,100578.31
2023-10-10T04:50:13.928Z,100570.34
2023-10-10T04:55:37.050Z,100568.41
2023-10-10T05:00:59.034Z,100587.47
2023-10-10T05:06:21.960Z,100594.31
2023-10-10T05:11:44.278Z,100600.56
2023-10-10T05:17:07.250Z,100606.88
2023-10-10T05:22:28.868Z,100608.69
2023-10-10T05:27:34.100Z,100612.16
2023-10-10T05:32:56.071Z,100626.13
2023-10-10T05:38:02.111Z,100621.66
2023-10-10T05:43:30.159Z,100629.16
2023-10-10T05:48:34.246Z,100636.97
2023-10-10T05:53:38.118Z,100633.72
2023-10-10T05:58:46.012Z,100636.78
2023-10-10T06:03:49.986Z,100646.63
2023-10-10T06:08:59.485Z,100651.34
2023-10-10T06:14:05.511Z,100674.38
2023-10-10T06:19:18.752Z,100681.19
2023-10-10T06:24:24.050Z,100691.53
2023-10-10T06:29:30.941Z,100684.53
2023-10-10T06:34:38.736Z,100692.03
2023-10-10T06:39:55.669Z,100689.78
2023-10-10T06:45:09.441Z,100693.66
2023-10-10T06:50:13.140Z,100701.03
2023-10-10T06:55:23.182Z,100692.25
2023-10-10T07:00:46.578Z,100695.72
2023-10-10T07:05:50.555Z,100708.00
2023-10-10T07:10:57.836Z,100707.56
2023-10-10T07:16:02.763Z,100706.13
2023-10-10T07:21:09.454Z,100713.50
2023-10-10T07:26:20.938Z,100712.22
2023-10-10T07:31:26.071Z,100699.63
2023-10-10T07:36:32.603Z,100702.94
2023-10-10T07:41:37.261Z,100697.03
2023-10-10T07:46:45.481Z,100704.56
2023-10-10T07:51:51.331Z,100705.09
2023-10-10T07:56:56.659Z,100697.53
2023-10-10T08:02:00.299Z,100700.41
2023-10-10T08:07:04.736Z,100703.56
2023-10-10T08:12:08.903Z,100711.91
2023-10-10T08:17:19.912Z,100713.00
2023-10-10T08:22:29.223Z,100720.34
2023-10-10T08:27:34.528Z,100717.69
2023-10-10T08:32:38.604Z,100731.06
2023-10-10T08:37:42.382Z,100744.72
2023-10-10T08:42:46.179Z,100736.59
2023-10-10T08:48:00.361Z,100743.41
2023-10-10T08:53:04.421Z,100732.78
2023-10-10T08:58:09.523Z,100742.78
2023-10-10T09:03:15.126Z,100758.44
2023-10-10T09:08:27.967Z,100761.31
2023-10-10T09:13:33.229Z,100762.31
2023-10-10T09:18:37.661Z,100767.47
2023-10-10T09:23:44.108Z,100761.31
2023-10-10T09:28:50.684Z,100772.78
2023-10-10T09:33:58.712Z,100778.09
2023-10-10T09:39:27.873Z,100773.63
2023-10-10T09:44:59.894Z,100781.75
2023-10-10T09:50:22.112Z,100778.09
2023-10-10T09:55:34.653Z,100782.13
2023-10-10T10:00:43.283Z,100773.66
2023-10-10T10:06:02.571Z,100771.22
2023-10-10T10:11:14.688Z,100770.91
2023-10-10T10:16:38.460Z,100771.97
2023-10-10T10:21:56.893Z,100766.72
2023-10-10T10:27:37.199Z,100778.31
2023-10-10T10:32:48.944Z,100782.31
2023-10-10T10:38:00.470Z,100776.44
2023-10-10T10:43:05.230Z,100767.28
2023-10-10T10:48:34.199Z,100764.66
2023-10-10T10:53:41.911Z,100748.50
2023-10-10T10:58:55.266Z,100757.88
2023-10-10T11:03:59.044Z,100761.56
2023-10-10T11:09:24.774Z,100761.09
2023-10-10T11:14:30.416Z,100747.63
2023-10-10T11:19:34.214Z,100742.31
2023-10-10T11:24:38.096Z,100740.03
2023-10-10T11:29:46.508Z,100723.25
2023-10-10T11:34:51.071Z,100739.94
2023-10-10T11:40:32.455Z,100725.78
2023-10-10T11:45:41.615Z,100724.53
2023-10-10T11:50:50.709Z,100723.88
2023-10-10T11:55:56.033Z,100721.22
2023-10-10T12:01:07.415Z,100712.25
2023-10-10T12:06:20.760Z,100707.09
2023-10-10T12:11:24.672Z,100702.13
2023-10-10T12:16:29.072Z,100689.44
2023-10-10T12:21:33.056Z,100688.94
2023-10-10T12:26:43.410Z,100681.09
2023-10-10T12:31:47.182Z,100679.88
2023-10-10T12:37:00.881Z,100683.00
2023-10-10T12:42:05.486Z,100692.94
2023-10-10T12:47:09.115Z,100685.41
2023-10-10T12:52:13.763Z,100688.66
2023-10-10T12:57:17.740Z,100688.41
2023-10-10T13:02:27.873Z,100689.28
2023-10-10T13:07:36.028Z,100677.53
2023-10-10T13:12:46.353Z,100674.34
2023-10-10T13:18:12.617Z,100676.44
2023-10-10T13:23:16.524Z,100664.41
2023-10-10T13:28:22.118Z,100663.22
2023-10-10T13:33:25.935Z,100662.78
2023-10-10T13:38:29.704Z,100656.72
2023-10-10T13:43:33.446Z,100656.66
2023-10-10T13:48:39.703Z,100648.63
2023-10-10T13:53:46.410Z,100653.31
2023-10-10T13:58:50.062Z,100660.50
2023-10-10T14:04:05.306Z,100648.44
2023-10-10T14:09:11.404Z,100647.22
2023-10-10T14:14:15.133Z,100658.00
2023-10-10T14:19:19.045Z,100654.41
2023-10-10T14:24:22.920Z,100659.03
2023-10-10T14:29:26.621Z,100664.38
2023-10-10T14:34:32.187Z,100657.28
2023-10-10T14:39:45.745Z,100661.69
2023-10-10T14:44:51.021Z,100657.19
2023-10-10T14:50:07.462Z,100660.50
2023-10-10T14:55:25.181Z,100654.53
2023-10-10T15:00:31.607Z,100661.00
2023-10-10T15:05:35.493Z,100655.16
2023-10-10T15:10:42.193Z,100662.00
2023-10-10T15:15:47.219Z,100668.72
2023-10-10T15:20:50.909Z,100673.94
2023-10-10T15:26:05.931Z,100679.25
2023-10-10T15:31:11.409Z,100683.72
2023-10-10T15:36:17.681Z,100666.94
2023-10-10T15:41:24.574Z,100680.59
2023-10-10T15:46:29.008Z,100682.88
2023-10-10T15:51:37.148Z,100691.28
2023-10-10T15:56:40.737Z,100693.16
2023-10-10T16:01:49.086Z,100700.72
2023-10-10T16:06:52.412Z,100704.75
2023-10-10T16:11:57.093Z,100706.91
2023-10-10T16:17:04.171Z,100707.25
2023-10-10T16:22:08.078Z,100708.56
2023-10-10T16:27:11.808Z,100707.00
2023-10-10T16:32:24.421Z,100729.91
2023-10-10T16:37:28.245Z,100735.03
2023-10-10T16:42:34.236Z,100739.66
2023-10-10T16:47:43.560Z,100749.56
2023-10-10T16:52:56.695Z,100751.53
2023-10-10T16:58:15.880Z,100751.47
2023-10-10T17:03:20.048Z,100748.41
2023-10-10T17:08:24.016Z,100757.16
2023-10-10T17:13:29.377Z,100767.28
2023-10-10T17:18:33.245Z,100763.94
2023-10-10T17:23:38.092Z,100763.94
2023-10-10T17:28:45.650Z,100762.50
2023-10-10T17:33:51.513Z,100768.00
2023-10-10T17:38:55.969Z,100773.69
2023-10-10T17:44:00.745Z,100778.06
2023-10-10T17:49:10.051Z,100783.75
2023-10-10T17:54:17.006Z,100795.44
2023-10-10T17:59:21.064Z,100790.94
2023-10-10T18:04:27.238Z,100790.63
2023-10-10T18:09:36.680Z,100801.13
2023-10-10T18:14:43.426Z,100802.78
2023-10-10T18:19:50.976Z,100807.09
2023-10-10T18:24:58.141Z,100803.78
2023-10-10T18:30:01.768Z,100812.91
2023-10-10T18:35:15.148Z,100819.75
2023-10-10T18:40:19.528Z,100809.63
2023-10-10T18:45:23.175Z,100814.78
2023-10-10T18:50:27.061Z,100817.97
2023-10-10T18:55:31.749Z,100819.63
2023-10-10T19:00:38.306Z,100822.13
2023-10-10T19:05:48.190Z,100840.28
2023-10-10T19:10:52.206Z,100831.78
2023-10-10T19:15:55.794Z,100841.75
2023-10-10T19:20:59.893Z,100849.66
2023-10-10T19:26:06.093Z,100835.16
2023-10-10T19:31:10.416Z,100841.81
2023-10-10T19:36:14.263Z,100852.91
2023-10-10T19:41:19.536Z,100848.53
2023-10-10T19:46:23.499Z,100845.78
2023-10-10T19:51:27.090Z,100845.59
2023-10-10T19:56:30.797Z,100858.94
2023-10-10T20:01:35.049Z,100854.56
2023-10-10T20:06:38.838Z,100849.47
2023-10-10T20:11:42.510Z,100845.91
2023-10-10T20:16:51.053Z,100845.00
2023-10-10T20:21:54.894Z,100857.59
2023-10-10T20:27:02.608Z,100859.88
2023-10-10T20:32:08.017Z,100875.41
2023-10-10T20:37:11.657Z,100874.19
2023-10-10T20:42:15.655Z,100877.25
2023-10-10T20:47:22.136Z,100873.53
2023-10-10T20:52:26.988Z,100865.47
2023-10-10T20:57:30.851Z,100859.50
2023-10-10T21:02:35.621Z,100877.75
2023-10-10T21:07:39.445Z,100862.66
2023-10-10T21:12:53.785Z,100865.03
2023-10-10T21:18:00.446Z,100845.91
2023-10-10T21:23:04.786Z,100862.13
2023-10-10T21:28:08.723Z,100856.13
2023-10-10T21:33:15.414Z,100859.22
2023-10-10T21:38:21.822Z,100852.38
2023-10-10T21:43:25.277Z,100846.41
2023-10-10T21:48:31.283Z,100845.41
2023-10-10T21:53:35.178Z,100845.56
2023-10-10T21:58:40.235Z,100865.28
2023-10-10T22:03:46.195Z,100869.19
2023-10-10T22:08:49.830Z,100879.28
2023-10-10T22:13:53.441Z,100889.06
2023-10-10T22:18:59.037Z,100876.47
2023-10-10T22:24:02.969Z,100878.69
2023-10-10T22:29:06.726Z,100878.84
2023-10-10T22:34:10.946Z,100873.38
2023-10-10T22:39:15.141Z,100871.41
2023-10-10T22:44:18.827Z,100879.78
2023-10-10T22:49:22.602Z,100884.25
2023-10-10T22:54:28.628Z,100883.41
2023-10-10T22:59:35.344Z,100879.09
2023-10-10T23:04:41.283Z,100881.75
2023-10-10T23:09:44.959Z,100877.56
2023-10-10T23:14:48.805Z,100872.16
2023-10-10T23:19:52.572Z,100879.97
2023-10-10T23:24:56.477Z,100876.78
2023-10-10T23:30:00.632Z,100877.38
2023-10-10T23:35:09.574Z,100879.47
2023-10-10T23:40:19.476Z,100875.72
2023-10-10T23:45:24.164Z,100888.84
2023-10-10T23:50:29.119Z,100878.81
2023-10-10T23:55:38.050Z,100866.59
